Time;durP1;ratioP1;P1;durP2;ratioP2;P2;SDS_P1;SDS_P2;PMS_P1;PMS_P2;Temp;Humidity;BMP_temperature;BMP_pressure;BME280_temperature;BME280_humidity;BME280_pressure;Samples;Min_cycle;Max_cycle;Signal;HPM_P1;HPM_P2
2022/12/25 00:00:27;;;;;;;9.70;3.75;;;;;;;;;;5067997;28;20028;-43
2022/12/25 00:02:53;;;;;;;15.68;5.88;;;;;;;;;;5071127;28;20458;-45
2022/12/25 00:05:20;;;;;;;14.77;5.40;;;;;;;;;;5070696;28;20053;-44
2022/12/25 00:07:45;;;;;;;11.48;3.33;;;;;;;;;;5071692;28;20035;-43
2022/12/25 00:10:11;;;;;;;10.75;4.43;;;;;;;;;;5071559;28;20107;-43
2022/12/25 00:12:37;;;;;;;8.77;3.72;;;;;;;;;;5053642;28;20036;-43
2022/12/25 00:15:04;;;;;;;9.48;3.38;;;;;;;;;;5071350;28;20369;-44
2022/12/25 00:17:30;;;;;;;10.45;4.47;;;;;;;;;;5060745;28;20037;-43
2022/12/25 00:19:56;;;;;;;9.63;4.18;;;;;;;;;;5070810;28;20480;-47
2022/12/25 00:22:22;;;;;;;11.55;3.97;;;;;;;;;;5070861;28;20082;-43
2022/12/25 00:24:48;;;;;;;8.20;3.70;;;;;;;;;;5071209;28;20017;-43
2022/12/25 00:27:14;;;;;;;5.95;3.15;;;;;;;;;;5071204;28;20070;-45
2022/12/25 00:29:40;;;;;;;8.43;3.50;;;;;;;;;;5071650;28;20062;-43
2022/12/25 00:32:06;;;;;;;8.98;4.45;;;;;;;;;;5070675;28;20107;-43
2022/12/25 00:34:32;;;;;;;6.93;3.13;;;;;;;;;;5064065;28;20046;-43
2022/12/25 00:36:58;;;;;;;11.55;3.83;;;;;;;;;;5073657;28;20032;-46
2022/12/25 00:39:24;;;;;;;9.30;3.40;;;;;;;;;;5071299;28;20024;-43
2022/12/25 00:44:34;;;;;;;7.32;3.25;;;;;;;;;;5060282;28;20112;-44
2022/12/25 00:47:00;;;;;;;7.97;3.53;;;;;;;;;;5070965;28;20111;-44
2022/12/25 00:49:26;;;;;;;6.88;3.10;;;;;;;;;;5071151;28;20037;-44
2022/12/25 00:51:52;;;;;;;8.00;3.03;;;;;;;;;;5060356;28;20086;-46
2022/12/25 00:54:19;;;;;;;8.80;3.63;;;;;;;;;;5069949;28;20020;-43
2022/12/25 00:56:45;;;;;;;6.45;2.53;;;;;;;;;;5071345;28;20470;-43
2022/12/25 00:59:11;;;;;;;9.48;3.47;;;;;;;;;;5069281;28;20025;-43
2022/12/25 01:01:38;;;;;;;7.45;3.60;;;;;;;;;;5071359;28;20086;-44
2022/12/25 01:04:04;;;;;;;7.00;2.83;;;;;;;;;;5068397;28;20533;-43
2022/12/25 01:06:30;;;;;;;6.45;3.25;;;;;;;;;;5070964;28;20088;-43
2022/12/25 01:11:41;;;;;;;6.68;2.72;;;;;;;;;;5071061;28;20474;-43
2022/12/25 01:14:07;;;;;;;4.82;2.30;;;;;;;;;;5069876;28;20032;-43
2022/12/25 01:16:33;;;;;;;5.70;2.40;;;;;;;;;;5070996;28;20028;-44
2022/12/25 01:18:59;;;;;;;6.70;2.60;;;;;;;;;;5069979;28;20052;-45
2022/12/25 01:21:25;;;;;;;5.82;2.40;;;;;;;;;;5071135;28;20024;-43
2022/12/25 01:23:52;;;;;;;5.20;2.65;;;;;;;;;;5070487;28;20024;-43
2022/12/25 01:26:19;;;;;;;6.25;2.50;;;;;;;;;;5067105;28;20029;-43
2022/12/25 01:28:45;;;;;;;6.97;2.55;;;;;;;;;;5070369;28;20355;-43
2022/12/25 01:31:12;;;;;;;6.40;3.50;;;;;;;;;;5070476;28;20073;-43
2022/12/25 01:33:38;;;;;;;4.95;2.13;;;;;;;;;;5070331;28;20020;-44
2022/12/25 01:36:05;;;;;;;5.97;2.20;;;;;;;;;;5069722;28;20037;-43
2022/12/25 01:38:31;;;;;;;6.07;2.10;;;;;;;;;;5070194;28;20465;-43
2022/12/25 01:40:57;;;;;;;6.43;2.65;;;;;;;;;;5070534;28;20021;-46
2022/12/25 01:43:24;;;;;;;4.82;2.40;;;;;;;;;;5064683;28;20017;-43
2022/12/25 01:45:51;;;;;;;6.20;2.75;;;;;;;;;;5071105;28;20039;-42
2022/12/25 01:48:21;;;;;;;5.78;2.83;;;;;;;;;;5068954;28;20036;-43
2022/12/25 01:50:51;;;;;;;4.57;2.10;;;;;;;;;;5058596;28;20024;-43
2022/12/25 01:53:17;;;;;;;3.85;2.35;;;;;;;;;;5069441;28;20235;-42
2022/12/25 01:55:45;;;;;;;6.22;2.70;;;;;;;;;;5071190;28;20099;-43
2022/12/25 01:58:11;;;;;;;4.68;1.95;;;;;;;;;;5068592;28;20024;-43
2022/12/25 02:00:37;;;;;;;3.72;2.17;;;;;;;;;;5066129;28;20090;-43
2022/12/25 02:03:03;;;;;;;7.07;2.33;;;;;;;;;;5068679;28;20025;-43
2022/12/25 02:05:30;;;;;;;4.80;2.22;;;;;;;;;;5070219;28;20523;-43
2022/12/25 02:07:59;;;;;;;6.40;2.53;;;;;;;;;;5069735;28;20124;-47
2022/12/25 02:10:25;;;;;;;3.97;1.60;;;;;;;;;;5070904;28;20024;-43
2022/12/25 02:12:51;;;;;;;7.43;2.80;;;;;;;;;;5070201;28;20021;-43
2022/12/25 02:15:18;;;;;;;4.03;2.08;;;;;;;;;;5069153;28;20679;-43
2022/12/25 02:17:50;;;;;;;3.08;2.03;;;;;;;;;;5064866;28;20469;-43
2022/12/25 02:20:35;;;;;;;3.75;1.77;;;;;;;;;;5070383;28;20108;-43
2022/12/25 02:23:01;;;;;;;4.95;2.17;;;;;;;;;;5073114;28;20021;-43
2022/12/25 02:25:33;;;;;;;5.95;2.15;;;;;;;;;;5073878;28;20020;-43
2022/12/25 02:28:08;;;;;;;4.55;2.47;;;;;;;;;;5070541;28;20111;-46
2022/12/25 02:30:40;;;;;;;2.78;1.63;;;;;;;;;;5074311;28;20025;-44
2022/12/25 02:35:53;;;;;;;4.43;1.65;;;;;;;;;;5070933;28;19954;-44
2022/12/25 02:38:33;;;;;;;4.95;2.00;;;;;;;;;;5055811;28;20016;-42
2022/12/25 02:41:01;;;;;;;3.30;1.85;;;;;;;;;;5073402;28;20029;-46
2022/12/25 03:08:53;;;;;;;3.63;1.60;;;;;;;;;;5061925;28;20505;-43
2022/12/25 03:11:32;;;;;;;3.95;1.52;;;;;;;;;;5072502;28;20048;-43
2022/12/25 03:16:58;;;;;;;2.33;1.70;;;;;;;;;;5073181;28;20420;-42
2022/12/25 03:27:46;;;;;;;4.07;1.65;;;;;;;;;;5068178;28;20398;-43
2022/12/25 03:33:04;;;;;;;2.85;1.33;;;;;;;;;;5063689;28;20098;-46
2022/12/25 03:35:43;;;;;;;2.92;1.50;;;;;;;;;;5071091;28;20485;-42
2022/12/25 03:47:19;;;;;;;3.08;1.85;;;;;;;;;;5067198;28;20047;-43
2022/12/25 04:36:49;;;;;;;1.83;1.10;;;;;;;;;;5069379;28;20061;-43
2022/12/25 04:39:15;;;;;;;3.72;1.45;;;;;;;;;;5070339;28;20096;-43
2022/12/25 04:41:41;;;;;;;2.13;1.10;;;;;;;;;;5071852;28;20028;-43
2022/12/25 04:44:07;;;;;;;3.50;1.75;;;;;;;;;;5069487;28;20024;-42
2022/12/25 04:46:32;;;;;;;3.20;1.33;;;;;;;;;;5071689;28;20023;-44
2022/12/25 04:48:58;;;;;;;1.88;1.00;;;;;;;;;;5063910;28;20470;-45
2022/12/25 04:51:25;;;;;;;2.40;1.02;;;;;;;;;;5064776;28;20025;-42
2022/12/25 04:53:51;;;;;;;2.25;1.23;;;;;;;;;;5064395;28;20049;-42
2022/12/25 04:56:18;;;;;;;2.35;0.98;;;;;;;;;;5064041;28;20021;-43
2022/12/25 04:58:44;;;;;;;1.40;0.90;;;;;;;;;;5070236;28;20029;-43
2022/12/25 05:01:11;;;;;;;2.20;1.20;;;;;;;;;;5070592;28;20106;-43
2022/12/25 05:03:37;;;;;;;3.28;1.20;;;;;;;;;;5068166;28;20028;-42
2022/12/25 05:06:03;;;;;;;1.35;0.90;;;;;;;;;;5064636;28;20432;-43
2022/12/25 05:08:30;;;;;;;1.90;1.40;;;;;;;;;;5070133;28;20040;-42
2022/12/25 05:10:56;;;;;;;2.75;1.60;;;;;;;;;;5071345;28;20017;-46
2022/12/25 05:13:22;;;;;;;2.33;0.95;;;;;;;;;;5070474;28;20169;-43
2022/12/25 05:15:48;;;;;;;1.70;1.00;;;;;;;;;;5071539;28;20028;-42
2022/12/25 05:18:14;;;;;;;1.95;1.23;;;;;;;;;;5069856;28;20024;-42
2022/12/25 05:20:40;;;;;;;2.35;1.15;;;;;;;;;;5071262;28;20033;-43
2022/12/25 05:23:08;;;;;;;2.58;1.10;;;;;;;;;;5069033;28;20013;-43
2022/12/25 05:25:37;;;;;;;1.42;0.90;;;;;;;;;;5070919;28;20398;-43
2022/12/25 05:28:03;;;;;;;1.35;0.88;;;;;;;;;;5067364;28;20051;-42
2022/12/25 05:30:29;;;;;;;1.77;0.80;;;;;;;;;;5071305;28;20029;-43
2022/12/25 05:32:55;;;;;;;3.17;0.70;;;;;;;;;;5070549;28;20520;-43
2022/12/25 05:35:21;;;;;;;4.18;1.45;;;;;;;;;;5069829;28;20103;-42
2022/12/25 05:37:47;;;;;;;2.15;1.30;;;;;;;;;;5070109;28;20119;-42
2022/12/25 05:40:13;;;;;;;2.55;1.00;;;;;;;;;;5069939;28;20052;-43
2022/12/25 05:42:39;;;;;;;2.13;1.00;;;;;;;;;;5070773;28;20029;-43
2022/12/25 05:45:06;;;;;;;1.02;0.90;;;;;;;;;;5070154;28;20020;-43
2022/12/25 05:47:31;;;;;;;1.98;1.15;;;;;;;;;;5070433;28;20385;-43
2022/12/25 05:49:57;;;;;;;1.88;1.15;;;;;;;;;;5070580;28;20032;-47
2022/12/25 05:52:23;;;;;;;1.42;0.80;;;;;;;;;;5069919;28;20541;-42
2022/12/25 05:54:49;;;;;;;2.45;0.88;;;;;;;;;;5064359;28;20040;-44
2022/12/25 05:57:15;;;;;;;1.90;1.45;;;;;;;;;;5066230;28;20077;-44
2022/12/25 05:59:41;;;;;;;1.63;0.82;;;;;;;;;;5067502;28;20044;-43
2022/12/25 06:02:07;;;;;;;2.35;1.20;;;;;;;;;;5069939;28;20032;-43
2022/12/25 06:04:33;;;;;;;1.55;1.13;;;;;;;;;;5067892;28;20101;-45
2022/12/25 06:06:59;;;;;;;2.95;1.58;;;;;;;;;;5066954;28;20048;-46
2022/12/25 06:09:25;;;;;;;3.40;1.27;;;;;;;;;;5068405;28;20044;-43
2022/12/25 06:11:51;;;;;;;1.77;0.90;;;;;;;;;;5074177;28;20028;-43
2022/12/25 06:14:17;;;;;;;4.30;1.20;;;;;;;;;;5066264;28;20029;-43
2022/12/25 06:16:43;;;;;;;1.67;1.00;;;;;;;;;;5072552;28;20028;-44
2022/12/25 06:19:09;;;;;;;2.70;1.02;;;;;;;;;;5069406;28;20028;-43
2022/12/25 06:21:35;;;;;;;2.08;1.45;;;;;;;;;;5073326;28;20024;-44
2022/12/25 06:24:02;;;;;;;2.30;1.20;;;;;;;;;;5065637;28;20020;-45
2022/12/25 06:26:28;;;;;;;2.13;1.02;;;;;;;;;;5073437;28;20021;-43
2022/12/25 06:28:54;;;;;;;3.28;1.38;;;;;;;;;;5071160;28;20386;-43
2022/12/25 06:31:21;;;;;;;4.88;1.52;;;;;;;;;;5070642;28;20036;-43
2022/12/25 06:33:47;;;;;;;0.95;0.60;;;;;;;;;;5058839;28;20032;-44
2022/12/25 06:36:15;;;;;;;1.88;0.95;;;;;;;;;;5070577;28;20040;-43
2022/12/25 06:38:41;;;;;;;1.00;0.70;;;;;;;;;;5069475;28;20021;-43
2022/12/25 06:41:09;;;;;;;1.33;1.00;;;;;;;;;;5071501;28;20037;-43
2022/12/25 06:43:35;;;;;;;3.10;1.10;;;;;;;;;;5071157;28;20056;-43
2022/12/25 06:46:02;;;;;;;4.07;1.20;;;;;;;;;;5071568;28;20086;-47
2022/12/25 06:48:28;;;;;;;2.55;1.02;;;;;;;;;;5074525;28;20049;-43
2022/12/25 06:50:54;;;;;;;1.80;1.13;;;;;;;;;;5071910;28;20844;-43
2022/12/25 06:53:20;;;;;;;1.77;0.98;;;;;;;;;;5071016;28;20019;-43
2022/12/25 06:55:46;;;;;;;2.05;1.25;;;;;;;;;;5068421;28;20393;-43
2022/12/25 06:58:12;;;;;;;1.88;1.05;;;;;;;;;;5070288;28;20052;-43
2022/12/25 07:00:38;;;;;;;3.22;0.90;;;;;;;;;;5070573;28;20052;-43
2022/12/25 07:03:04;;;;;;;1.38;0.80;;;;;;;;;;5069259;28;20044;-43
2022/12/25 07:05:30;;;;;;;2.63;0.70;;;;;;;;;;5071453;28;20064;-43
2022/12/25 07:07:56;;;;;;;2.92;0.90;;;;;;;;;;5054167;28;20067;-43
2022/12/25 07:10:22;;;;;;;1.27;0.77;;;;;;;;;;5071942;28;20066;-42
2022/12/25 07:12:48;;;;;;;2.03;0.90;;;;;;;;;;5066331;28;20016;-43
2022/12/25 07:15:14;;;;;;;1.55;0.77;;;;;;;;;;5072520;28;20047;-43
2022/12/25 07:17:40;;;;;;;0.80;0.80;;;;;;;;;;5072907;28;20071;-43
2022/12/25 07:20:06;;;;;;;2.35;1.23;;;;;;;;;;5072286;28;20024;-43
2022/12/25 07:22:32;;;;;;;1.85;0.95;;;;;;;;;;5066835;28;20389;-43
2022/12/25 07:24:58;;;;;;;1.77;0.80;;;;;;;;;;5072958;28;20024;-42
2022/12/25 07:27:24;;;;;;;3.13;1.48;;;;;;;;;;5071560;28;20040;-43
2022/12/25 07:29:50;;;;;;;2.42;0.73;;;;;;;;;;5073068;28;20488;-44
2022/12/25 07:32:16;;;;;;;0.95;0.70;;;;;;;;;;5071953;28;20033;-44
2022/12/25 07:34:42;;;;;;;1.75;0.90;;;;;;;;;;5071643;28;20028;-43
2022/12/25 07:37:08;;;;;;;0.90;0.80;;;;;;;;;;5076473;28;20033;-43
2022/12/25 07:39:34;;;;;;;1.63;0.98;;;;;;;;;;5071334;28;20066;-43
2022/12/25 07:42:00;;;;;;;2.22;0.73;;;;;;;;;;5070564;28;20032;-46
2022/12/25 07:44:26;;;;;;;1.73;0.70;;;;;;;;;;5070460;28;20024;-43
2022/12/25 07:46:52;;;;;;;1.65;0.90;;;;;;;;;;5070656;28;20032;-43
2022/12/25 07:49:18;;;;;;;3.63;0.95;;;;;;;;;;5069594;28;20800;-43
2022/12/25 07:51:44;;;;;;;1.40;0.85;;;;;;;;;;5068074;28;20088;-43
2022/12/25 07:54:10;;;;;;;1.33;0.75;;;;;;;;;;5068103;28;20025;-44
2022/12/25 07:56:36;;;;;;;2.63;0.80;;;;;;;;;;5067076;28;20409;-43
2022/12/25 07:59:02;;;;;;;1.58;1.00;;;;;;;;;;5063670;28;20025;-47
2022/12/25 08:01:28;;;;;;;2.20;0.85;;;;;;;;;;5066742;28;20024;-44
2022/12/25 08:03:55;;;;;;;7.03;1.67;;;;;;;;;;5069162;28;20532;-43
2022/12/25 08:06:23;;;;;;;0.85;0.50;;;;;;;;;;5069860;28;20215;-43
2022/12/25 08:08:49;;;;;;;2.78;1.02;;;;;;;;;;5076023;28;20036;-44
2022/12/25 08:11:15;;;;;;;2.22;0.93;;;;;;;;;;5069960;28;20013;-43
2022/12/25 08:13:41;;;;;;;2.55;0.80;;;;;;;;;;5067228;28;20028;-43
2022/12/25 08:16:09;;;;;;;2.05;0.93;;;;;;;;;;5072137;28;20021;-44
2022/12/25 08:18:36;;;;;;;1.10;0.82;;;;;;;;;;5074340;28;20363;-44
2022/12/25 08:21:03;;;;;;;2.75;1.08;;;;;;;;;;5071712;28;20012;-46
2022/12/25 08:23:29;;;;;;;2.28;0.88;;;;;;;;;;5072265;28;20013;-44
2022/12/25 08:25:58;;;;;;;2.15;0.90;;;;;;;;;;5044290;28;20033;-45
2022/12/25 08:28:25;;;;;;;3.50;1.00;;;;;;;;;;5048325;28;20036;-43
2022/12/25 08:30:51;;;;;;;1.58;0.75;;;;;;;;;;5057052;28;20017;-44
2022/12/25 08:33:17;;;;;;;1.48;1.08;;;;;;;;;;5073090;28;20052;-43
2022/12/25 08:35:42;;;;;;;2.75;1.20;;;;;;;;;;5069931;28;20132;-43
2022/12/25 08:38:08;;;;;;;1.45;0.90;;;;;;;;;;5075241;28;20020;-44
2022/12/25 08:40:34;;;;;;;2.28;1.20;;;;;;;;;;5073688;28;20477;-46
2022/12/25 08:43:00;;;;;;;2.35;0.90;;;;;;;;;;5071821;28;20082;-47
2022/12/25 08:45:26;;;;;;;2.13;1.17;;;;;;;;;;5069762;28;20096;-44
2022/12/25 08:47:56;;;;;;;3.22;1.27;;;;;;;;;;5068046;28;20466;-47
2022/12/25 08:50:23;;;;;;;3.40;1.38;;;;;;;;;;5070752;28;20027;-44
2022/12/25 08:52:49;;;;;;;2.85;1.50;;;;;;;;;;5070433;28;20031;-43
2022/12/25 08:55:15;;;;;;;2.75;1.10;;;;;;;;;;5070437;28;20028;-44
2022/12/25 08:57:42;;;;;;;2.63;1.40;;;;;;;;;;5069826;28;20024;-44
2022/12/25 09:00:08;;;;;;;1.88;1.00;;;;;;;;;;5069892;28;20025;-44
2022/12/25 09:02:34;;;;;;;3.45;1.35;;;;;;;;;;5065522;28;20029;-45
2022/12/25 09:05:00;;;;;;;3.30;1.27;;;;;;;;;;5064355;28;20056;-48
2022/12/25 09:07:26;;;;;;;3.38;1.10;;;;;;;;;;5069794;28;20405;-44
2022/12/25 09:09:52;;;;;;;1.92;1.02;;;;;;;;;;5070828;28;20021;-46
2022/12/25 09:12:18;;;;;;;1.73;1.20;;;;;;;;;;5069836;28;20066;-44
2022/12/25 09:14:44;;;;;;;1.25;0.90;;;;;;;;;;5070614;28;20028;-44
2022/12/25 09:17:10;;;;;;;3.70;1.10;;;;;;;;;;5070401;28;20024;-44
2022/12/25 09:19:36;;;;;;;2.30;0.85;;;;;;;;;;5065724;28;20032;-44
2022/12/25 09:22:03;;;;;;;3.15;0.98;;;;;;;;;;5067710;28;20021;-47
2022/12/25 09:24:29;;;;;;;1.92;1.17;;;;;;;;;;5070039;28;20473;-44
2022/12/25 09:26:55;;;;;;;4.97;1.02;;;;;;;;;;5070591;28;20139;-43
2022/12/25 09:29:21;;;;;;;2.50;0.93;;;;;;;;;;5069152;28;20496;-44
2022/12/25 09:31:47;;;;;;;2.45;1.00;;;;;;;;;;5070437;28;20036;-44
2022/12/25 09:34:13;;;;;;;3.38;0.85;;;;;;;;;;5068521;28;20479;-43
2022/12/25 09:36:39;;;;;;;3.40;1.13;;;;;;;;;;5074029;28;20182;-44
2022/12/25 09:39:05;;;;;;;2.00;0.90;;;;;;;;;;5051521;28;20035;-46
2022/12/25 09:41:33;;;;;;;4.93;1.20;;;;;;;;;;5070963;28;20466;-45
2022/12/25 09:44:05;;;;;;;2.97;1.35;;;;;;;;;;5069543;28;20061;-48
2022/12/25 09:46:40;;;;;;;3.05;1.10;;;;;;;;;;5064086;28;20020;-45
2022/12/25 09:49:21;;;;;;;3.40;1.17;;;;;;;;;;5069655;28;20024;-44
2022/12/25 09:51:52;;;;;;;2.75;1.20;;;;;;;;;;5070481;28;20060;-45
2022/12/25 09:54:38;;;;;;;0.97;0.80;;;;;;;;;;5059219;28;20024;-45
2022/12/25 09:57:05;;;;;;;1.98;0.82;;;;;;;;;;5069096;28;20100;-44
2022/12/25 09:59:31;;;;;;;1.92;1.02;;;;;;;;;;5069126;28;20537;-44
2022/12/25 10:02:02;;;;;;;1.83;1.30;;;;;;;;;;5067354;28;20097;-45
2022/12/25 10:04:47;;;;;;;1.27;0.85;;;;;;;;;;5069365;28;20458;-45
2022/12/25 10:07:36;;;;;;;1.40;0.65;;;;;;;;;;5069970;28;20045;-44
2022/12/25 10:10:34;;;;;;;1.90;0.80;;;;;;;;;;5021787;28;20029;-48
2022/12/25 10:13:19;;;;;;;1.90;1.10;;;;;;;;;;5027760;28;20029;-48
2022/12/25 10:15:54;;;;;;;2.97;1.13;;;;;;;;;;5070581;28;20020;-44
2022/12/25 10:18:25;;;;;;;2.10;0.80;;;;;;;;;;5067137;28;20036;-44
2022/12/25 10:20:53;;;;;;;4.13;1.20;;;;;;;;;;5069609;28;20024;-45
2022/12/25 10:23:23;;;;;;;2.15;1.20;;;;;;;;;;5068604;28;20126;-44
2022/12/25 10:25:51;;;;;;;3.35;1.02;;;;;;;;;;5070371;28;20036;-44
2022/12/25 10:28:29;;;;;;;5.97;1.10;;;;;;;;;;5067096;28;20040;-45
2022/12/25 10:30:58;;;;;;;1.80;0.75;;;;;;;;;;5070885;28;20021;-44
2022/12/25 10:33:24;;;;;;;3.97;1.27;;;;;;;;;;5057994;28;20032;-45
2022/12/25 10:35:50;;;;;;;2.90;0.93;;;;;;;;;;5072522;28;20036;-45
2022/12/25 10:38:18;;;;;;;2.50;0.82;;;;;;;;;;5073667;28;20077;-44
2022/12/25 10:40:46;;;;;;;7.80;1.88;;;;;;;;;;5070213;28;20078;-44
2022/12/25 10:43:16;;;;;;;1.63;0.90;;;;;;;;;;5071173;28;20031;-45
2022/12/25 10:45:43;;;;;;;0.95;0.80;;;;;;;;;;5069825;28;20025;-45
2022/12/25 10:48:13;;;;;;;2.88;1.30;;;;;;;;;;5070984;28;20416;-44
2022/12/25 10:50:42;;;;;;;1.20;0.82;;;;;;;;;;5073723;28;20439;-44
2022/12/25 10:53:17;;;;;;;1.73;0.80;;;;;;;;;;5072232;28;20019;-44
2022/12/25 10:55:53;;;;;;;5.57;0.95;;;;;;;;;;5069390;28;20051;-44
2022/12/25 10:58:19;;;;;;;2.88;1.27;;;;;;;;;;5063968;28;20482;-44
2022/12/25 11:00:50;;;;;;;0.98;0.70;;;;;;;;;;5066770;28;20111;-44
2022/12/25 11:03:21;;;;;;;2.03;0.90;;;;;;;;;;5068912;28;20013;-44
2022/12/25 11:05:50;;;;;;;2.70;1.00;;;;;;;;;;5073267;28;20279;-45
2022/12/25 11:08:20;;;;;;;2.25;1.00;;;;;;;;;;5058480;28;20074;-44
2022/12/25 11:10:51;;;;;;;1.75;1.00;;;;;;;;;;5068991;28;20526;-44
2022/12/25 11:13:20;;;;;;;1.90;0.80;;;;;;;;;;5072018;28;20033;-44
2022/12/25 11:15:49;;;;;;;2.75;1.83;;;;;;;;;;5073397;28;20355;-44
2022/12/25 11:18:18;;;;;;;2.95;0.90;;;;;;;;;;5071559;28;20028;-44
2022/12/25 11:21:07;;;;;;;1.92;1.02;;;;;;;;;;5067572;28;20048;-44
2022/12/25 11:23:33;;;;;;;1.63;0.77;;;;;;;;;;5071686;28;20051;-44
2022/12/25 11:26:04;;;;;;;3.22;1.30;;;;;;;;;;5061556;28;20029;-45
2022/12/25 11:28:32;;;;;;;5.68;0.70;;;;;;;;;;5071581;28;20047;-45
2022/12/25 11:31:02;;;;;;;2.88;1.13;;;;;;;;;;5064306;28;20033;-45
2022/12/25 11:33:34;;;;;;;2.97;1.00;;;;;;;;;;5069904;28;20051;-45
2022/12/25 11:36:02;;;;;;;1.52;0.90;;;;;;;;;;5074251;28;20139;-45
2022/12/25 11:38:28;;;;;;;2.42;1.15;;;;;;;;;;5069946;28;20020;-46
2022/12/25 11:40:57;;;;;;;3.60;1.30;;;;;;;;;;5067679;28;20040;-44
2022/12/25 11:43:32;;;;;;;1.60;0.70;;;;;;;;;;5070316;28;20017;-45
2022/12/25 11:46:08;;;;;;;2.95;1.25;;;;;;;;;;5068829;28;20033;-45
2022/12/25 11:48:36;;;;;;;1.60;0.95;;;;;;;;;;5070693;28;20090;-46
2022/12/25 11:51:04;;;;;;;2.10;1.00;;;;;;;;;;5070256;28;20139;-49
2022/12/25 11:53:46;;;;;;;2.72;0.80;;;;;;;;;;5068369;28;20116;-46
2022/12/25 11:56:12;;;;;;;;;;;;;;;;;;5070141;28;20089;-45
2022/12/25 11:58:43;;;;;;;4.38;1.50;;;;;;;;;;5071241;28;20272;-45
2022/12/25 12:01:18;;;;;;;1.65;0.80;;;;;;;;;;5062034;28;20044;-45
2022/12/25 12:03:44;;;;;;;1.75;0.73;;;;;;;;;;5067835;28;20032;-47
2022/12/25 12:06:27;;;;;;;3.40;0.90;;;;;;;;;;5069191;28;20478;-45
2022/12/25 12:08:56;;;;;;;3.28;1.27;;;;;;;;;;5068535;28;20032;-48
2022/12/25 12:11:28;;;;;;;2.83;0.80;;;;;;;;;;5065873;28;20098;-44
2022/12/25 12:13:54;;;;;;;;;;;;;;;;;;5069505;28;20037;-44
2022/12/25 12:16:20;;;;;;;3.35;0.90;;;;;;;;;;5071748;28;20273;-44
2022/12/25 12:18:46;;;;;;;1.55;0.85;;;;;;;;;;5076366;28;20070;-46
2022/12/25 12:21:21;;;;;;;2.03;0.82;;;;;;;;;;5067456;28;20104;-44
2022/12/25 12:24:05;;;;;;;1.27;0.88;;;;;;;;;;5069437;28;20024;-45
2022/12/25 12:26:35;;;;;;;2.75;0.95;;;;;;;;;;5072444;28;20040;-45
2022/12/25 12:29:01;;;;;;;1.63;1.00;;;;;;;;;;5066570;28;20028;-45
2022/12/25 12:31:57;;;;;;;4.78;1.27;;;;;;;;;;5062985;28;20032;-44
2022/12/25 12:34:30;;;;;;;3.33;1.30;;;;;;;;;;5045902;28;20116;-44
2022/12/25 12:37:07;;;;;;;2.78;0.80;;;;;;;;;;5072989;28;20044;-45
2022/12/25 12:39:36;;;;;;;5.88;1.42;;;;;;;;;;5059884;28;20059;-44
2022/12/25 12:42:10;;;;;;;2.25;1.15;;;;;;;;;;5070455;28;20485;-47
2022/12/25 12:44:36;;;;;;;1.55;0.90;;;;;;;;;;5058141;28;20021;-44
2022/12/25 12:47:02;;;;;;;1.13;0.70;;;;;;;;;;5070463;28;20128;-48
2022/12/25 12:49:31;;;;;;;1.85;1.23;;;;;;;;;;5063113;28;20021;-46
2022/12/25 12:52:04;;;;;;;3.17;1.20;;;;;;;;;;5067593;28;20028;-44
2022/12/25 12:54:30;;;;;;;1.95;0.93;;;;;;;;;;5068153;28;20027;-46
2022/12/25 12:57:07;;;;;;;2.15;1.10;;;;;;;;;;5070762;28;20024;-46
2022/12/25 12:59:42;;;;;;;1.27;0.85;;;;;;;;;;5060979;28;20025;-44
2022/12/25 13:02:17;;;;;;;5.47;1.85;;;;;;;;;;5061849;28;20119;-44
2022/12/25 13:05:03;;;;;;;6.85;1.13;;;;;;;;;;5067899;28;20115;-43
2022/12/25 13:07:47;;;;;;;2.20;1.00;;;;;;;;;;5069352;28;20052;-44
2022/12/25 13:10:13;;;;;;;1.48;0.90;;;;;;;;;;5065707;28;20024;-44
2022/12/25 13:12:39;;;;;;;1.35;0.80;;;;;;;;;;5069590;28;20020;-43
2022/12/25 13:15:11;;;;;;;1.42;0.75;;;;;;;;;;5068125;28;20099;-47
2022/12/25 13:17:37;;;;;;;1.60;0.98;;;;;;;;;;5077833;28;20032;-43
2022/12/25 13:20:04;;;;;;;2.22;1.23;;;;;;;;;;5066008;28;20378;-47
2022/12/25 13:22:31;;;;;;;1.45;0.80;;;;;;;;;;5068957;28;20100;-44
2022/12/25 13:24:58;;;;;;;4.85;1.00;;;;;;;;;;5068628;28;20469;-43
2022/12/25 13:27:26;;;;;;;2.95;0.95;;;;;;;;;;5068302;28;20055;-43
2022/12/25 13:29:52;;;;;;;1.23;0.75;;;;;;;;;;5061240;28;20096;-43
2022/12/25 13:32:21;;;;;;;2.85;1.23;;;;;;;;;;5060098;28;20056;-44
2022/12/25 13:34:47;;;;;;;2.03;0.80;;;;;;;;;;5068318;28;20021;-45
2022/12/25 13:37:14;;;;;;;3.28;1.00;;;;;;;;;;5069364;28;20044;-43
2022/12/25 13:39:48;;;;;;;3.45;1.38;;;;;;;;;;5065950;28;20039;-43
2022/12/25 13:42:16;;;;;;;1.58;0.90;;;;;;;;;;5068252;28;20386;-43
2022/12/25 13:44:51;;;;;;;1.38;1.02;;;;;;;;;;5068343;28;20074;-43
2022/12/25 13:47:23;;;;;;;1.70;1.20;;;;;;;;;;5068474;28;20045;-44
2022/12/25 13:49:48;;;;;;;;;;;;;;;;;;5070146;28;20063;-43
2022/12/25 13:52:20;;;;;;;3.33;1.40;;;;;;;;;;5068428;28;19969;-45
2022/12/25 13:54:59;;;;;;;1.95;1.02;;;;;;;;;;5052328;28;20017;-43
2022/12/25 13:57:36;;;;;;;1.15;0.95;;;;;;;;;;5068903;28;20639;-45
2022/12/25 14:00:03;;;;;;;1.60;0.77;;;;;;;;;;5070520;28;20474;-43
2022/12/25 14:02:31;;;;;;;1.90;0.85;;;;;;;;;;5062958;28;20047;-43
2022/12/25 14:04:57;;;;;;;8.98;1.98;;;;;;;;;;5072556;28;20076;-43
2022/12/25 14:07:24;;;;;;;4.30;1.20;;;;;;;;;;5069309;28;20660;-44
2022/12/25 14:09:53;;;;;;;4.60;1.15;;;;;;;;;;5066266;28;20031;-43
2022/12/25 14:12:20;;;;;;;2.60;1.38;;;;;;;;;;5060665;28;20478;-43
2022/12/25 14:14:46;;;;;;;3.20;1.20;;;;;;;;;;5069908;28;20039;-44
2022/12/25 14:17:12;;;;;;;3.47;0.90;;;;;;;;;;5071724;28;20790;-43
2022/12/25 14:19:38;;;;;;;1.95;1.23;;;;;;;;;;5073855;28;20021;-43
2022/12/25 14:22:09;;;;;;;4.78;1.10;;;;;;;;;;5078876;28;20430;-47
2022/12/25 14:24:36;;;;;;;2.70;1.25;;;;;;;;;;5074478;28;20461;-44
2022/12/25 14:27:03;;;;;;;4.57;1.20;;;;;;;;;;5067882;28;20025;-43
2022/12/25 14:29:34;;;;;;;3.83;0.98;;;;;;;;;;5073095;28;20032;-43
2022/12/25 14:32:03;;;;;;;1.80;1.07;;;;;;;;;;5074297;28;20020;-43
2022/12/25 14:34:29;;;;;;;2.10;1.02;;;;;;;;;;5064471;28;20052;-43
2022/12/25 14:36:55;;;;;;;2.50;1.40;;;;;;;;;;5077333;28;20028;-43
2022/12/25 14:39:27;;;;;;;2.33;0.98;;;;;;;;;;5070911;28;20416;-43
2022/12/25 14:41:53;;;;;;;1.40;0.80;;;;;;;;;;5070382;28;20500;-44
2022/12/25 14:44:32;;;;;;;5.18;1.38;;;;;;;;;;5072000;28;20116;-43
2022/12/25 14:47:27;;;;;;;1.73;0.80;;;;;;;;;;5073732;28;20035;-43
2022/12/25 14:49:54;;;;;;;5.95;1.23;;;;;;;;;;5054602;28;20132;-44
2022/12/25 14:52:20;;;;;;;2.20;0.90;;;;;;;;;;5068822;28;20028;-45
2022/12/25 14:55:06;;;;;;;2.97;1.00;;;;;;;;;;5073806;28;20043;-43
2022/12/25 14:57:33;;;;;;;2.08;1.30;;;;;;;;;;5078463;28;20028;-43
2022/12/25 15:00:09;;;;;;;4.68;1.33;;;;;;;;;;5074604;28;20073;-43
2022/12/25 15:02:39;;;;;;;2.75;1.30;;;;;;;;;;5064941;28;20123;-43
2022/12/25 15:05:05;;;;;;;4.10;1.70;;;;;;;;;;5072909;28;20056;-47
2022/12/25 15:07:31;;;;;;;2.15;1.00;;;;;;;;;;5072767;28;20047;-43
2022/12/25 15:09:57;;;;;;;1.70;0.95;;;;;;;;;;5073551;28;20020;-43
2022/12/25 15:12:24;;;;;;;5.07;2.03;;;;;;;;;;5072144;28;20082;-43
2022/12/25 15:14:50;;;;;;;2.05;1.10;;;;;;;;;;5073401;28;20020;-43
2022/12/25 15:17:23;;;;;;;4.45;2.05;;;;;;;;;;5072266;28;20469;-44
2022/12/25 15:19:49;;;;;;;3.85;1.20;;;;;;;;;;5071092;28;20508;-43
2022/12/25 15:22:15;;;;;;;2.90;1.40;;;;;;;;;;5072253;28;20040;-45
2022/12/25 15:24:41;;;;;;;6.05;1.83;;;;;;;;;;5072467;28;20017;-43
2022/12/25 15:27:17;;;;;;;6.20;1.65;;;;;;;;;;5069112;28;20466;-48
2022/12/25 15:29:44;;;;;;;4.78;1.60;;;;;;;;;;5067070;28;20077;-44
2022/12/25 15:32:14;;;;;;;4.80;1.20;;;;;;;;;;5071713;28;20065;-44
2022/12/25 15:34:40;;;;;;;6.88;2.42;;;;;;;;;;5071416;28;20081;-44
2022/12/25 15:37:06;;;;;;;8.45;1.90;;;;;;;;;;5076867;28;20517;-48
2022/12/25 15:39:32;;;;;;;7.18;2.05;;;;;;;;;;5071714;28;20028;-43
2022/12/25 15:42:11;;;;;;;9.30;2.13;;;;;;;;;;5072314;28;20024;-44
2022/12/25 15:44:37;;;;;;;6.90;1.70;;;;;;;;;;5081179;28;20024;-44
2022/12/25 15:47:03;;;;;;;5.78;2.10;;;;;;;;;;5072694;28;20486;-44
2022/12/25 15:49:29;;;;;;;7.45;1.80;;;;;;;;;;5070896;28;20032;-43
2022/12/25 15:51:55;;;;;;;6.70;2.17;;;;;;;;;;5071861;28;20028;-45
2022/12/25 15:54:21;;;;;;;9.75;2.05;;;;;;;;;;5071291;28;20035;-44
2022/12/25 15:56:51;;;;;;;13.05;2.58;;;;;;;;;;5071960;28;20039;-43
2022/12/25 15:59:18;;;;;;;7.63;1.90;;;;;;;;;;5070912;28;20032;-44
2022/12/25 16:01:49;;;;;;;13.68;1.73;;;;;;;;;;5072147;28;20032;-44
2022/12/25 16:04:15;;;;;;;6.10;3.15;;;;;;;;;;5073607;28;20024;-44
2022/12/25 16:06:41;;;;;;;6.53;1.92;;;;;;;;;;5074146;28;20052;-43
2022/12/25 16:09:09;;;;;;;6.03;1.90;;;;;;;;;;5070785;28;20032;-46
2022/12/25 16:11:35;;;;;;;7.47;1.48;;;;;;;;;;5071802;28;20024;-43
2022/12/25 16:14:01;;;;;;;4.88;1.42;;;;;;;;;;5071204;28;20024;-44
2022/12/25 16:16:27;;;;;;;9.52;1.73;;;;;;;;;;5070592;28;20012;-45
2022/12/25 16:18:53;;;;;;;7.80;1.63;;;;;;;;;;5052642;28;20028;-44
2022/12/25 16:21:20;;;;;;;9.02;1.50;;;;;;;;;;5074168;28;20025;-44
2022/12/25 16:23:46;;;;;;;5.25;1.55;;;;;;;;;;5059960;28;20514;-43
2022/12/25 16:26:12;;;;;;;5.18;2.22;;;;;;;;;;5068206;28;20039;-44
2022/12/25 16:28:38;;;;;;;5.03;1.30;;;;;;;;;;5061455;28;20048;-44
2022/12/25 16:31:04;;;;;;;4.40;1.50;;;;;;;;;;5064424;28;20032;-44
2022/12/25 16:33:30;;;;;;;10.82;2.90;;;;;;;;;;5061352;28;20086;-44